^^
Station Historical Data
 
Daily Summary for October 30, 2014 Units:  English    Metric   Both
« Previous Day
Next Day »
Daily Weekly Monthly Yearly Custom
  Current: High: Low: Average:
Temperature: 51.5 °F 55.3 °F 35.9 °F 45.6 °F
Dew Point: 41.3 °F 45.7 °F 35.2 °F 40.3 °F
Humidity: 68% 99% 58% 84%
Wind Speed: 0.0mph 10.4mph 0.0mph 4.1mph
Wind Gust: 0.0mph 10.4mph - -
WindCalm - - WNW
Pressure: 29.99 in 30.02 in 29.92 in -
Precipitation: 0.01 in      
Historical Graphs
 
 
Tabular Data for October 30, 2014
Time Temperature Dew Point Pressure Wind Wind Speed Wind Gust Humidity Rainfall Rate (Hourly)
00:01 43.3 °F 42.5 °F 29.92 in Calm     97% 0.00 in
00:06 43.2 °F 42.4 °F 29.92 in Calm     97% 0.00 in
00:11 43.0 °F 42.2 °F 29.92 in Calm     97% 0.00 in
00:16 42.8 °F 42.0 °F 29.92 in Calm     97% 0.00 in
00:21 42.6 °F 41.8 °F 29.92 in Calm     97% 0.00 in
00:26 42.4 °F 41.6 °F 29.92 in Calm     97% 0.00 in
00:31 42.2 °F 41.4 °F 29.92 in Calm     97% 0.00 in
00:36 41.9 °F 41.1 °F 29.92 in Calm     97% 0.00 in
00:41 41.6 °F 40.8 °F 29.92 in SW 1.2 mph   97% 0.00 in
00:46 41.4 °F 40.3 °F 29.92 in Calm     96% 0.00 in
00:51 41.2 °F 40.4 °F 29.92 in Calm     97% 0.00 in
00:56 41.1 °F 40.3 °F 29.92 in Calm     97% 0.00 in
01:01 40.9 °F 40.1 °F 29.92 in Calm     97% 0.00 in
01:06 40.7 °F 39.9 °F 29.93 in Calm     97% 0.00 in
01:11 40.5 °F 39.7 °F 29.93 in Calm     97% 0.00 in
01:16 40.3 °F 39.5 °F 29.93 in SW 1.0 mph   97% 0.00 in
01:21 40.3 °F 39.5 °F 29.93 in Calm     97% 0.00 in
01:26 40.2 °F 39.4 °F 29.93 in Calm     97% 0.00 in
01:31 40.2 °F 39.4 °F 29.93 in Calm     97% 0.00 in
01:36 40.2 °F 39.4 °F 29.93 in Calm     97% 0.00 in
01:41 40.0 °F 39.2 °F 29.93 in Calm     97% 0.00 in
01:46 39.8 °F 39.0 °F 29.93 in Calm     97% 0.00 in
01:51 39.7 °F 38.9 °F 29.93 in Calm     97% 0.00 in
01:56 39.5 °F 38.7 °F 29.93 in Calm     97% 0.00 in
02:01 39.3 °F 38.5 °F 29.93 in Calm     97% 0.00 in
02:06 39.2 °F 38.4 °F 29.93 in Calm     97% 0.00 in
02:11 39.1 °F 38.3 °F 29.93 in Calm     97% 0.00 in
02:16 39.0 °F 38.2 °F 29.93 in Calm     97% 0.00 in
02:21 38.9 °F 38.1 °F 29.93 in Calm     97% 0.00 in
02:26 38.8 °F 38.0 °F 29.93 in Calm     97% 0.00 in
02:31 38.7 °F 37.9 °F 29.93 in Calm     97% 0.01 in
02:36 38.7 °F 37.9 °F 29.93 in Calm     97% 0.01 in
02:41 38.6 °F 37.8 °F 29.93 in Calm     97% 0.01 in
02:46 38.6 °F 37.8 °F 29.93 in Calm     97% 0.01 in
02:51 38.6 °F 37.8 °F 29.93 in Calm     97% 0.01 in
02:56 38.5 °F 37.7 °F 29.93 in Calm     97% 0.01 in
03:01 38.4 °F 37.6 °F 29.93 in Calm     97% 0.01 in
03:06 38.2 °F 37.4 °F 29.93 in Calm     97% 0.01 in
03:11 38.0 °F 37.2 °F 29.93 in Calm     97% 0.01 in
03:16 37.8 °F 37.0 °F 29.93 in Calm     97% 0.01 in
03:21 37.7 °F 36.9 °F 29.93 in Calm     97% 0.01 in
03:26 37.6 °F 36.8 °F 29.93 in Calm     97% 0.01 in
03:31 37.6 °F 36.8 °F 29.93 in Calm     97% 0.00 in
03:36 37.4 °F 36.6 °F 29.93 in Calm     97% 0.00 in
03:41 37.3 °F 36.5 °F 29.93 in Calm     97% 0.00 in
03:46 37.2 °F 36.4 °F 29.93 in Calm     97% 0.00 in
03:51 37.3 °F 36.5 °F 29.93 in Calm     97% 0.00 in
03:56 37.4 °F 36.6 °F 29.93 in Calm     97% 0.00 in
04:01 37.3 °F 36.5 °F 29.93 in Calm     97% 0.00 in
04:06 37.2 °F 36.4 °F 29.93 in Calm     97% 0.00 in
04:11 37.1 °F 36.3 °F 29.93 in Calm     97% 0.00 in
04:16 37.2 °F 36.4 °F 29.93 in Calm     97% 0.00 in
04:21 37.4 °F 36.6 °F 29.93 in Calm     97% 0.00 in
04:26 37.4 °F 36.6 °F 29.93 in Calm     97% 0.00 in
04:31 37.5 °F 36.7 °F 29.93 in Calm     97% 0.00 in
04:36 37.5 °F 36.7 °F 29.93 in Calm     97% 0.00 in
04:41 37.6 °F 37.1 °F 29.94 in Calm     98% 0.00 in
04:46 37.6 °F 37.1 °F 29.94 in Calm     98% 0.00 in
04:51 37.7 °F 37.2 °F 29.94 in Calm     98% 0.00 in
04:56 37.7 °F 37.2 °F 29.94 in Calm     98% 0.00 in
05:02 37.6 °F 37.1 °F 29.95 in Calm     98% 0.00 in
05:07 37.5 °F 37.0 °F 29.95 in Calm     98% 0.00 in
05:12 37.4 °F 36.6 °F 29.95 in Calm     97% 0.00 in
05:17 37.3 °F 36.5 °F 29.96 in Calm     97% 0.00 in
05:22 37.1 °F 36.3 °F 29.96 in Calm     97% 0.00 in
05:27 37.1 °F 36.3 °F 29.95 in Calm     97% 0.00 in
05:32 37.0 °F 36.2 °F 29.96 in Calm     97% 0.00 in
05:37 37.0 °F 36.5 °F 29.96 in Calm     98% 0.00 in
05:42 37.0 °F 36.5 °F 29.96 in Calm     98% 0.00 in
05:47 37.0 °F 36.2 °F 29.96 in Calm     97% 0.00 in
05:52 37.0 °F 36.5 °F 29.96 in Calm     98% 0.00 in
05:57 37.0 °F 36.5 °F 29.96 in Calm     98% 0.00 in
06:02 36.9 °F 36.4 °F 29.96 in Calm     98% 0.00 in
06:07 36.8 °F 36.3 °F 29.96 in Calm     98% 0.00 in
06:12 36.8 °F 36.0 °F 29.96 in Calm     97% 0.00 in
06:17 36.8 °F 36.0 °F 29.97 in Calm     97% 0.00 in
06:22 36.7 °F 35.9 °F 29.97 in Calm     97% 0.00 in
06:27 36.6 °F 36.1 °F 29.97 in Calm     98% 0.00 in
06:32 36.6 °F 36.1 °F 29.98 in Calm     98% 0.00 in
06:37 36.5 °F 36.0 °F 29.98 in Calm     98% 0.00 in
06:42 36.4 °F 35.9 °F 29.98 in Calm     98% 0.00 in
06:47 36.3 °F 35.5 °F 29.98 in Calm     97% 0.00 in
06:52 36.2 °F 35.4 °F 29.98 in Calm     97% 0.00 in
06:57 36.0 °F 35.2 °F 29.98 in Calm     97% 0.00 in
07:02 36.1 °F 35.3 °F 29.98 in Calm     97% 0.00 in
07:07 36.1 °F 35.3 °F 29.98 in Calm     97% 0.00 in
07:12 36.1 °F 35.3 °F 29.98 in Calm     97% 0.00 in
07:17 36.1 °F 35.3 °F 29.98 in Calm     97% 0.00 in
07:22 36.0 °F 35.2 °F 29.98 in Calm     97% 0.00 in
07:27 36.0 °F 35.2 °F 29.98 in Calm     97% 0.00 in
07:32 35.9 °F 35.4 °F 29.98 in Calm     98% 0.00 in
07:37 36.0 °F 35.5 °F 29.98 in Calm     98% 0.00 in
07:42 36.0 °F 35.5 °F 29.98 in Calm     98% 0.00 in
07:47 36.1 °F 35.6 °F 29.99 in Calm     98% 0.00 in
07:52 36.2 °F 35.7 °F 29.99 in Calm     98% 0.00 in
07:57 36.3 °F 35.8 °F 29.99 in Calm     98% 0.00 in
08:02 36.4 °F 35.9 °F 29.99 in Calm     98% 0.00 in
08:07 36.7 °F 36.2 °F 29.99 in Calm     98% 0.00 in
08:12 37.0 °F 36.5 °F 29.99 in Calm     98% 0.00 in
08:17 37.4 °F 36.9 °F 29.99 in Calm     98% 0.00 in
08:22 37.8 °F 37.3 °F 30.00 in Calm     98% 0.00 in
08:27 38.4 °F 37.9 °F 30.00 in Calm     98% 0.00 in
08:32 39.0 °F 38.5 °F 30.00 in Calm     98% 0.00 in
08:37 39.8 °F 39.5 °F 30.00 in Calm     99% 0.00 in
08:42 40.5 °F 40.2 °F 30.00 in Calm     99% 0.00 in
08:47 41.3 °F 41.0 °F 30.00 in Calm     99% 0.00 in
08:52 42.0 °F 41.7 °F 30.00 in Calm     99% 0.00 in
08:57 42.9 °F 42.6 °F 30.00 in SW 1.2 mph   99% 0.00 in
09:02 43.8 °F 43.5 °F 30.01 in WNW 1.2 mph 1.2 mph 99% 0.00 in
09:07 44.2 °F 43.9 °F 30.01 in WNW 1.2 mph   99% 0.00 in
09:12 44.4 °F 44.1 °F 30.01 in WNW 1.2 mph   99% 0.00 in
09:17 44.6 °F 44.3 °F 30.01 in WNW 1.2 mph   99% 0.00 in
09:22 44.8 °F 44.5 °F 30.01 in WNW 1.2 mph 1.2 mph 99% 0.00 in
09:27 45.0 °F 44.7 °F 30.01 in WNW 1.2 mph 1.2 mph 99% 0.00 in
09:32 45.6 °F 45.3 °F 30.01 in Calm     99% 0.00 in
09:37 46.2 °F 45.7 °F 30.01 in WNW 4.6 mph 4.6 mph 98% 0.00 in
09:42 46.5 °F 45.7 °F 30.01 in WSW 1.2 mph 1.2 mph 97% 0.00 in
09:47 46.8 °F 45.2 °F 30.01 in West 1.2 mph   94% 0.00 in
09:52 47.0 °F 44.8 °F 30.01 in WSW 1.2 mph   92% 0.00 in
09:57 47.2 °F 44.7 °F 30.01 in WSW 2.3 mph 2.3 mph 91% 0.00 in
10:02 47.5 °F 44.7 °F 30.01 in West 1.2 mph 1.2 mph 90% 0.00 in
10:07 47.7 °F 44.9 °F 30.02 in West 1.2 mph 1.2 mph 90% 0.00 in
10:12 48.0 °F 45.2 °F 30.01 in Calm     90% 0.00 in
10:17 48.2 °F 45.1 °F 30.02 in West 2.3 mph 2.3 mph 89% 0.00 in
10:22 48.4 °F 45.0 °F 30.02 in West 1.2 mph 1.2 mph 88% 0.00 in
10:27 48.7 °F 45.3 °F 30.01 in West 2.3 mph 2.3 mph 88% 0.00 in
10:32 49.0 °F 45.0 °F 30.01 in Calm     86% 0.00 in
10:37 49.5 °F 45.5 °F 30.01 in West 1.2 mph 1.2 mph 86% 0.00 in
10:42 49.8 °F 44.8 °F 30.02 in West 3.5 mph 3.5 mph 83% 0.00 in
10:47 50.3 °F 45.3 °F 30.01 in West 4.6 mph 4.6 mph 83% 0.00 in
10:52 50.7 °F 45.4 °F 30.01 in WNW 4.6 mph 4.6 mph 82% 0.00 in
10:57 51.1 °F 44.8 °F 30.01 in NNW 5.8 mph 5.8 mph 79% 0.00 in
11:02 51.4 °F 44.8 °F 30.01 in WNW 6.9 mph 6.9 mph 78% 0.00 in
11:07 51.8 °F 44.5 °F 30.01 in NW 10.4 mph 10.4 mph 76% 0.00 in
11:12 52.3 °F 45.3 °F 30.01 in NNW 6.9 mph 6.9 mph 77% 0.00 in
11:17 52.6 °F 44.9 °F 30.01 in West 8.1 mph 8.1 mph 75% 0.00 in
11:22 52.7 °F 44.6 °F 30.01 in NNW 2.0 mph 2.0 mph 74% 0.00 in
11:27 52.9 °F 45.5 °F 30.01 in NNW 2.3 mph 2.3 mph 76% 0.00 in
11:32 53.0 °F 44.2 °F 30.01 in NW 4.6 mph 4.6 mph 72% 0.00 in
11:37 52.9 °F 43.7 °F 30.01 in NNW 4.6 mph 4.6 mph 71% 0.00 in
11:42 52.9 °F 44.1 °F 30.01 in NE 4.6 mph 4.6 mph 72% 0.00 in
11:47 53.1 °F 44.3 °F 30.01 in NW 6.9 mph 6.9 mph 72% 0.00 in
11:52 53.1 °F 44.3 °F 30.01 in NW 3.5 mph 3.5 mph 72% 0.00 in
11:57 53.3 °F 44.1 °F 30.01 in West 4.6 mph 4.6 mph 71% 0.00 in
12:02 53.3 °F 44.1 °F 30.01 in NNE 2.3 mph 2.3 mph 71% 0.00 in
12:07 53.6 °F 45.2 °F 30.00 in NNW 3.5 mph 3.5 mph 73% 0.00 in
12:12 53.8 °F 45.0 °F 30.01 in NNW 6.9 mph 6.9 mph 72% 0.00 in
12:17 54.2 °F 44.6 °F 30.01 in NW 4.6 mph 4.6 mph 70% 0.00 in
12:22 54.4 °F 44.1 °F 30.01 in WNW 5.8 mph 5.8 mph 68% 0.00 in
12:27 54.2 °F 44.2 °F 30.01 in NNW 3.5 mph 3.5 mph 69% 0.00 in
12:32 54.3 °F 44.0 °F 30.00 in West 3.5 mph 3.5 mph 68% 0.00 in
12:37 54.8 °F 43.7 °F 30.00 in WNW 5.8 mph 5.8 mph 66% 0.00 in
12:42 55.3 °F 43.7 °F 30.00 in NNW 9.2 mph 9.2 mph 65% 0.00 in
12:47 55.2 °F 43.6 °F 30.00 in NW 5.8 mph 5.8 mph 65% 0.00 in
12:52 54.7 °F 43.6 °F 30.00 in NW 6.0 mph 6.0 mph 66% 0.00 in
12:57 54.2 °F 42.7 °F 30.00 in NNW 6.9 mph 6.9 mph 65% 0.00 in
13:02 53.7 °F 42.6 °F 30.00 in NNW 9.2 mph 9.2 mph 66% 0.00 in
13:07 53.4 °F 43.1 °F 29.99 in NW 5.8 mph 5.8 mph 68% 0.00 in
13:12 53.3 °F 43.0 °F 30.00 in NNW 6.9 mph 6.9 mph 68% 0.00 in
13:17 53.1 °F 42.4 °F 29.99 in NW 3.5 mph 3.5 mph 67% 0.00 in
13:22 53.1 °F 42.4 °F 29.99 in NW 3.5 mph 3.5 mph 67% 0.00 in
13:27 53.1 °F 42.8 °F 29.99 in NW 3.5 mph 3.5 mph 68% 0.00 in
13:32 53.2 °F 42.5 °F 29.99 in West 6.9 mph 6.9 mph 67% 0.00 in
13:37 53.3 °F 42.6 °F 29.99 in NW 5.8 mph 5.8 mph 67% 0.00 in
13:42 53.3 °F 42.6 °F 29.99 in WSW 5.0 mph 5.0 mph 67% 0.00 in
13:47 53.4 °F 42.3 °F 29.99 in NNW 2.3 mph 2.3 mph 66% 0.00 in
13:52 53.5 °F 42.4 °F 29.98 in NNW 5.8 mph 5.8 mph 66% 0.00 in
13:57 53.6 °F 42.5 °F 29.98 in NNW 5.0 mph 5.0 mph 66% 0.00 in
14:02 53.6 °F 42.5 °F 29.98 in WNW 1.2 mph 1.2 mph 66% 0.00 in
14:07 53.6 °F 42.5 °F 29.98 in NNW 2.3 mph 2.3 mph 66% 0.00 in
14:12 53.6 °F 42.5 °F 29.98 in NNW 3.5 mph 3.5 mph 66% 0.00 in
14:17 53.7 °F 41.8 °F 29.98 in NNW 5.8 mph 5.8 mph 64% 0.00 in
14:22 53.8 °F 41.9 °F 29.98 in NNW 3.5 mph 3.5 mph 64% 0.00 in
14:27 53.9 °F 41.6 °F 29.98 in NW 1.2 mph   63% 0.00 in
14:32 54.1 °F 41.4 °F 29.98 in WNW 6.0 mph 6.0 mph 62% 0.00 in
14:37 54.2 °F 42.3 °F 29.98 in WNW 1.0 mph   64% 0.00 in
14:42 54.3 °F 41.6 °F 29.98 in WNW 3.5 mph 3.5 mph 62% 0.00 in
14:47 54.4 °F 42.1 °F 29.97 in NW 8.0 mph 8.0 mph 63% 0.00 in
14:52 54.4 °F 42.1 °F 29.97 in WNW 5.0 mph 5.0 mph 63% 0.00 in
14:57 54.3 °F 42.0 °F 29.98 in NW 4.0 mph 4.0 mph 63% 0.00 in
15:02 54.2 °F 41.9 °F 29.97 in NNW 4.6 mph 4.6 mph 63% 0.00 in
15:07 54.1 °F 41.4 °F 29.98 in NNW 5.8 mph 5.8 mph 62% 0.00 in
15:12 54.0 °F 40.8 °F 29.97 in NNW 7.0 mph 7.0 mph 61% 0.00 in
15:17 54.0 °F 41.7 °F 29.97 in NNW 1.2 mph 1.2 mph 63% 0.00 in
15:22 54.1 °F 41.8 °F 29.97 in NE 4.6 mph 4.6 mph 63% 0.00 in
15:27 54.2 °F 41.0 °F 29.97 in NW 5.8 mph 5.8 mph 61% 0.00 in
15:32 54.2 °F 41.0 °F 29.97 in North 2.3 mph   61% 0.00 in
15:37 54.3 °F 41.6 °F 29.97 in NNW 5.8 mph 5.8 mph 62% 0.00 in
15:42 54.4 °F 41.2 °F 29.97 in NNW 2.3 mph 2.3 mph 61% 0.00 in
15:47 54.6 °F 41.0 °F 29.97 in NNW 5.8 mph 5.8 mph 60% 0.00 in
15:52 54.7 °F 40.2 °F 29.97 in NW 9.2 mph 9.2 mph 58% 0.00 in
15:57 54.8 °F 40.3 °F 29.97 in NNW 5.0 mph 5.0 mph 58% 0.00 in
16:02 54.8 °F 40.7 °F 29.97 in NNW 8.1 mph 8.1 mph 59% 0.00 in
16:07 54.8 °F 40.7 °F 29.97 in NW 5.0 mph 5.0 mph 59% 0.00 in
16:12 54.8 °F 40.7 °F 29.97 in NW 3.5 mph 3.5 mph 59% 0.00 in
16:17 54.8 °F 40.7 °F 29.97 in NNW 3.5 mph 3.5 mph 59% 0.00 in
16:22 54.8 °F 40.7 °F 29.97 in NW 5.8 mph 5.8 mph 59% 0.00 in
16:27 54.7 °F 40.6 °F 29.97 in NW 5.8 mph 5.8 mph 59% 0.00 in
16:32 54.6 °F 41.4 °F 29.97 in NW 4.0 mph 4.0 mph 61% 0.00 in
16:37 54.6 °F 41.4 °F 29.97 in NNE 1.2 mph 1.2 mph 61% 0.00 in
16:42 54.6 °F 41.0 °F 29.97 in NW 5.8 mph 5.8 mph 60% 0.00 in
16:47 54.5 °F 40.9 °F 29.97 in NNW 1.2 mph 1.2 mph 60% 0.00 in
16:52 54.3 °F 41.1 °F 29.97 in NW 8.1 mph 8.1 mph 61% 0.00 in
16:57 54.1 °F 41.4 °F 29.97 in WNW 5.0 mph 5.0 mph 62% 0.00 in
17:02 53.9 °F 41.2 °F 29.97 in WNW 9.2 mph 9.2 mph 62% 0.00 in
17:07 53.7 °F 41.4 °F 29.98 in NW 6.9 mph 6.9 mph 63% 0.00 in
17:12 53.6 °F 41.3 °F 29.98 in WNW 4.6 mph 4.6 mph 63% 0.00 in
17:17 53.5 °F 41.2 °F 29.98 in NNW 3.5 mph 3.5 mph 63% 0.00 in
17:22 53.4 °F 41.1 °F 29.97 in NW 5.8 mph 5.8 mph 63% 0.00 in
17:27 53.3 °F 41.0 °F 29.98 in NW 3.5 mph 3.5 mph 63% 0.00 in
17:32 53.2 °F 41.3 °F 29.98 in NW 1.2 mph 1.2 mph 64% 0.00 in
17:37 53.1 °F 41.2 °F 29.98 in NW 2.3 mph 2.3 mph 64% 0.00 in
17:42 53.0 °F 41.5 °F 29.98 in NW 1.2 mph 1.2 mph 65% 0.00 in
17:47 52.9 °F 41.4 °F 29.98 in Calm     65% 0.00 in
17:52 52.8 °F 41.4 °F 29.98 in NW 2.3 mph 2.3 mph 65% 0.00 in
17:57 52.6 °F 41.6 °F 29.98 in NW 1.2 mph   66% 0.00 in
18:02 52.5 °F 41.5 °F 29.98 in Calm     66% 0.00 in
18:07 52.4 °F 41.0 °F 29.98 in Calm     65% 0.00 in
18:12 52.3 °F 41.3 °F 29.98 in NW 2.3 mph 2.3 mph 66% 0.00 in
18:17 52.1 °F 41.1 °F 29.98 in NW 2.3 mph 2.3 mph 66% 0.00 in
18:22 52.0 °F 41.0 °F 29.98 in NW 1.2 mph 1.2 mph 66% 0.00 in
18:27 51.9 °F 40.9 °F 29.99 in NW 1.2 mph 1.2 mph 66% 0.00 in
18:32 51.8 °F 40.8 °F 29.99 in Calm     66% 0.00 in
18:37 51.7 °F 40.7 °F 29.99 in Calm     66% 0.00 in
18:42 51.6 °F 40.6 °F 29.99 in Calm     66% 0.00 in
18:47 51.5 °F 41.3 °F 29.99 in Calm     68% 0.00 in
Mechanicsburg,PA USA
Compliments of Weather Underground